Time;durP1;ratioP1;P1;durP2;ratioP2;P2;SDS_P1;SDS_P2;PMS_P1;PMS_P2;Temp;Humidity;BMP_temperature;BMP_pressure;BME280_temperature;BME280_humidity;BME280_pressure;Samples;Min_cycle;Max_cycle;Signal;HPM_P1;HPM_P2
2022/09/26 00:01:04;;;;;;;1999.90;999.90;;;;;;;;;;5033381;28;20411;-71
2022/09/26 00:03:33;;;;;;;1999.90;999.90;;;;;;;;;;5048741;28;20232;-72
2022/09/26 00:06:01;;;;;;;1999.90;999.90;;;;;;;;;;5045193;28;20393;-72
2022/09/26 00:08:29;;;;;;;1999.90;999.90;;;;;;;;;;5049144;28;20407;-71
2022/09/26 00:10:58;;;;;;;1999.90;999.90;;;;;;;;;;5049885;28;21561;-72
2022/09/26 00:13:26;;;;;;;1999.90;999.90;;;;;;;;;;5059844;28;21010;-72
2022/09/26 00:15:54;;;;;;;1999.90;999.90;;;;;;;;;;5048636;28;20401;-72
2022/09/26 00:18:21;;;;;;;1999.90;999.90;;;;;;;;;;5050631;28;20402;-72
2022/09/26 00:20:51;;;;;;;1999.90;999.90;;;;;;;;;;5048143;28;20404;-72
2022/09/26 00:23:18;;;;;;;1999.90;999.90;;;;;;;;;;5031199;28;20412;-72
2022/09/26 00:25:47;;;;;;;1999.90;999.90;;;;;;;;;;5049792;28;20885;-72
2022/09/26 00:28:14;;;;;;;1999.90;999.90;;;;;;;;;;5053868;28;20817;-72
2022/09/26 00:30:43;;;;;;;1999.90;999.90;;;;;;;;;;5052243;28;20505;-74
2022/09/26 00:33:11;;;;;;;1999.90;999.90;;;;;;;;;;5049782;28;20405;-73
2022/09/26 00:35:39;;;;;;;1999.90;999.90;;;;;;;;;;5052181;28;20411;-73
2022/09/26 00:38:08;;;;;;;1999.90;999.90;;;;;;;;;;5047118;28;20966;-73
2022/09/26 00:40:36;;;;;;;1999.90;999.90;;;;;;;;;;5052874;28;20424;-73
2022/09/26 00:43:04;;;;;;;1999.90;999.90;;;;;;;;;;5046985;28;20385;-75
2022/09/26 00:45:32;;;;;;;1999.90;999.90;;;;;;;;;;5057651;28;20450;-72
2022/09/26 00:48:02;;;;;;;1999.90;999.90;;;;;;;;;;5050517;28;20437;-72
2022/09/26 00:50:31;;;;;;;1999.90;999.90;;;;;;;;;;5053562;28;20416;-72
2022/09/26 00:53:00;;;;;;;1999.90;999.90;;;;;;;;;;5033494;28;20429;-72
2022/09/26 00:55:34;;;;;;;1999.90;999.90;;;;;;;;;;5055159;28;20463;-71
2022/09/26 00:58:04;;;;;;;1999.90;999.90;;;;;;;;;;5048950;28;20396;-73
2022/09/26 01:00:32;;;;;;;1999.90;999.90;;;;;;;;;;5052043;28;20408;-72
2022/09/26 01:03:02;;;;;;;1999.90;999.90;;;;;;;;;;5047068;28;20451;-73
2022/09/26 01:05:31;;;;;;;1999.90;999.90;;;;;;;;;;5049311;28;21003;-72
2022/09/26 01:07:59;;;;;;;1999.90;999.90;;;;;;;;;;5048698;28;20412;-71
2022/09/26 01:10:27;;;;;;;1999.90;999.90;;;;;;;;;;5051209;28;20416;-72
2022/09/26 01:12:56;;;;;;;1999.90;999.90;;;;;;;;;;5047497;28;20483;-71
2022/09/26 01:15:24;;;;;;;1999.90;999.90;;;;;;;;;;5031582;28;20391;-71
2022/09/26 01:17:52;;;;;;;1999.90;999.90;;;;;;;;;;5025586;28;20497;-72
2022/09/26 01:20:26;;;;;;;1999.90;999.90;;;;;;;;;;5048342;28;20547;-72
2022/09/26 01:23:22;;;;;;;1999.90;999.90;;;;;;;;;;5048010;28;21680;-72
2022/09/26 01:26:00;;;;;;;1999.90;999.90;;;;;;;;;;5049562;28;20883;-72
2022/09/26 01:28:34;;;;;;;1999.90;999.90;;;;;;;;;;5034543;28;20384;-72
2022/09/26 01:31:11;;;;;;;1999.90;999.90;;;;;;;;;;5045561;28;20941;-72
2022/09/26 01:33:43;;;;;;;1999.90;999.90;;;;;;;;;;5025510;28;20486;-72
2022/09/26 01:36:21;;;;;;;1999.90;999.90;;;;;;;;;;5046623;28;20443;-72
2022/09/26 01:38:53;;;;;;;1999.90;999.90;;;;;;;;;;5047845;28;20392;-72
2022/09/26 01:41:28;;;;;;;1999.90;999.90;;;;;;;;;;5033579;28;20502;-72
2022/09/26 01:43:57;;;;;;;1999.90;999.90;;;;;;;;;;5049233;28;20406;-72
2022/09/26 01:46:32;;;;;;;1999.90;999.90;;;;;;;;;;5049170;28;20596;-72
2022/09/26 01:49:06;;;;;;;1999.90;999.90;;;;;;;;;;5061459;28;20396;-72
2022/09/26 01:51:37;;;;;;;1999.90;999.90;;;;;;;;;;5041868;28;20571;-71
2022/09/26 01:54:08;;;;;;;1999.90;999.90;;;;;;;;;;5049678;28;20789;-71
2022/09/26 01:56:38;;;;;;;1999.90;999.90;;;;;;;;;;5043741;28;20463;-71
2022/09/26 01:59:10;;;;;;;1999.90;999.90;;;;;;;;;;5032840;28;21189;-71
2022/09/26 02:01:41;;;;;;;1999.90;999.90;;;;;;;;;;5032033;28;20434;-72
2022/09/26 02:04:11;;;;;;;1999.90;999.90;;;;;;;;;;5050675;28;20404;-72
2022/09/26 02:06:55;;;;;;;1999.90;999.90;;;;;;;;;;5052624;28;20928;-72
2022/09/26 02:09:42;;;;;;;1999.90;999.90;;;;;;;;;;5043665;28;20393;-71
2022/09/26 02:12:13;;;;;;;1999.90;999.90;;;;;;;;;;5049907;28;20412;-71
2022/09/26 02:14:43;;;;;;;1999.90;999.90;;;;;;;;;;5034051;28;20558;-72
2022/09/26 02:17:13;;;;;;;1999.90;999.90;;;;;;;;;;5050981;28;20404;-72
2022/09/26 02:19:45;;;;;;;1999.90;999.90;;;;;;;;;;5033519;28;20404;-71
2022/09/26 02:22:14;;;;;;;1999.90;999.90;;;;;;;;;;5051012;28;20418;-72
2022/09/26 02:24:42;;;;;;;1999.90;999.90;;;;;;;;;;5048911;28;21138;-71
2022/09/26 02:27:09;;;;;;;1999.90;999.90;;;;;;;;;;5044619;28;20451;-72
2022/09/26 02:29:39;;;;;;;1999.90;999.90;;;;;;;;;;5052657;28;20934;-72
2022/09/26 02:32:14;;;;;;;1999.90;999.90;;;;;;;;;;5047092;28;20400;-72
2022/09/26 02:34:43;;;;;;;1999.90;999.90;;;;;;;;;;5031120;28;20884;-72
2022/09/26 02:37:12;;;;;;;1999.90;999.90;;;;;;;;;;5034415;28;20466;-72
2022/09/26 02:39:41;;;;;;;1999.90;999.90;;;;;;;;;;5057757;28;20411;-72
2022/09/26 02:42:21;;;;;;;1999.90;999.90;;;;;;;;;;5044251;28;20416;-73
2022/09/26 02:44:55;;;;;;;1999.90;999.90;;;;;;;;;;5052572;28;20904;-73
2022/09/26 02:47:37;;;;;;;1999.90;999.90;;;;;;;;;;5047420;28;20431;-72
2022/09/26 02:50:21;;;;;;;1999.90;999.90;;;;;;;;;;5049132;28;20441;-73
2022/09/26 02:52:53;;;;;;;1999.90;999.90;;;;;;;;;;5050262;28;20394;-72
2022/09/26 02:55:34;;;;;;;1999.90;999.90;;;;;;;;;;5043214;28;20378;-72
2022/09/26 02:58:06;;;;;;;1999.90;999.90;;;;;;;;;;5050131;28;20478;-73
2022/09/26 03:00:41;;;;;;;1999.90;999.90;;;;;;;;;;5042417;28;20412;-72
2022/09/26 03:03:13;;;;;;;1999.90;999.90;;;;;;;;;;5031609;28;20413;-72
2022/09/26 03:05:42;;;;;;;1999.90;999.90;;;;;;;;;;5047110;28;20386;-72
2022/09/26 03:08:13;;;;;;;1999.90;999.90;;;;;;;;;;5058144;28;21149;-73
2022/09/26 03:10:41;;;;;;;1999.90;999.90;;;;;;;;;;5043778;28;20396;-72
2022/09/26 03:13:12;;;;;;;1999.90;999.90;;;;;;;;;;5059664;28;20401;-73
2022/09/26 03:15:40;;;;;;;1999.90;999.90;;;;;;;;;;5030844;28;21232;-72
2022/09/26 03:18:10;;;;;;;1999.90;999.90;;;;;;;;;;5041520;28;20406;-72
2022/09/26 03:20:40;;;;;;;1999.90;999.90;;;;;;;;;;5051862;28;20394;-72
2022/09/26 03:23:08;;;;;;;1999.90;999.90;;;;;;;;;;5055550;28;20448;-72
2022/09/26 03:25:37;;;;;;;1999.90;999.90;;;;;;;;;;5071387;28;21063;-72
2022/09/26 03:28:08;;;;;;;1999.90;999.90;;;;;;;;;;5054176;28;20442;-77
2022/09/26 03:30:37;;;;;;;1999.90;999.90;;;;;;;;;;5055154;28;20362;-71
2022/09/26 03:33:34;;;;;;;1999.90;999.90;;;;;;;;;;5047718;28;21366;-72
2022/09/26 03:36:06;;;;;;;1999.90;999.90;;;;;;;;;;5034936;28;20392;-73
2022/09/26 03:38:34;;;;;;;1999.90;999.90;;;;;;;;;;5046715;28;20225;-73
2022/09/26 03:41:16;;;;;;;1999.90;999.90;;;;;;;;;;5025249;28;20587;-72
2022/09/26 03:43:46;;;;;;;1999.90;999.90;;;;;;;;;;5043350;28;20269;-72
2022/09/26 03:46:15;;;;;;;1999.90;999.90;;;;;;;;;;5042589;28;21245;-72
2022/09/26 03:48:43;;;;;;;1999.90;999.90;;;;;;;;;;5030805;28;20474;-72
2022/09/26 03:51:13;;;;;;;1999.90;999.90;;;;;;;;;;5044370;28;20395;-72
2022/09/26 03:53:41;;;;;;;1999.90;999.90;;;;;;;;;;5039065;28;20408;-73
2022/09/26 03:56:14;;;;;;;1999.90;999.90;;;;;;;;;;5040457;28;20397;-73
2022/09/26 03:58:42;;;;;;;1999.90;999.90;;;;;;;;;;5031817;28;20441;-72
2022/09/26 04:01:11;;;;;;;1999.90;999.90;;;;;;;;;;5046285;28;20761;-72
2022/09/26 04:03:41;;;;;;;1999.90;999.90;;;;;;;;;;5047546;28;20239;-72
2022/09/26 04:06:19;;;;;;;1999.90;999.90;;;;;;;;;;5051014;28;20231;-70
2022/09/26 04:08:49;;;;;;;1999.90;999.90;;;;;;;;;;5055705;28;20405;-74
2022/09/26 04:11:18;;;;;;;1999.90;999.90;;;;;;;;;;5049183;28;20411;-72
2022/09/26 04:13:47;;;;;;;1999.90;999.90;;;;;;;;;;5045894;28;20439;-72
2022/09/26 04:16:23;;;;;;;1999.90;999.90;;;;;;;;;;5029757;28;20391;-72
2022/09/26 04:19:00;;;;;;;1999.90;999.90;;;;;;;;;;5046952;28;20229;-71
2022/09/26 04:21:30;;;;;;;1999.90;999.90;;;;;;;;;;5048278;28;20405;-72
2022/09/26 04:23:58;;;;;;;1999.90;999.90;;;;;;;;;;5032301;28;20735;-72
2022/09/26 04:26:27;;;;;;;1999.90;999.90;;;;;;;;;;5027981;28;20224;-72
2022/09/26 04:28:56;;;;;;;1999.90;999.90;;;;;;;;;;5050291;28;20232;-71
2022/09/26 04:31:39;;;;;;;1999.90;999.90;;;;;;;;;;5028979;28;20228;-71
2022/09/26 04:34:13;;;;;;;1999.90;999.90;;;;;;;;;;5031103;28;20904;-71
2022/09/26 04:36:43;;;;;;;1999.90;999.90;;;;;;;;;;5031457;28;21153;-71
2022/09/26 04:39:11;;;;;;;1999.90;999.90;;;;;;;;;;5034693;28;20250;-71
2022/09/26 04:41:39;;;;;;;1999.90;999.90;;;;;;;;;;5046267;28;20543;-72
2022/09/26 04:44:07;;;;;;;1999.90;999.90;;;;;;;;;;5043163;28;20232;-72
2022/09/26 04:46:34;;;;;;;1999.90;999.90;;;;;;;;;;5051855;28;21593;-72
2022/09/26 04:49:03;;;;;;;1999.90;999.90;;;;;;;;;;5049305;28;20236;-72
2022/09/26 04:51:31;;;;;;;1999.90;999.90;;;;;;;;;;5046118;28;20229;-71
2022/09/26 04:54:00;;;;;;;1999.90;999.90;;;;;;;;;;5057198;28;20859;-73
2022/09/26 04:56:32;;;;;;;1999.90;999.90;;;;;;;;;;5031346;28;20227;-72
2022/09/26 04:59:01;;;;;;;1999.90;999.90;;;;;;;;;;5046421;28;20232;-70
2022/09/26 05:01:38;;;;;;;1999.90;999.90;;;;;;;;;;5063507;28;20391;-72
2022/09/26 05:04:11;;;;;;;1999.90;999.90;;;;;;;;;;5047493;28;20414;-70
2022/09/26 05:06:39;;;;;;;1999.90;999.90;;;;;;;;;;5051388;28;20370;-71
2022/09/26 05:09:14;;;;;;;1999.90;999.90;;;;;;;;;;5040636;28;20796;-71
2022/09/26 05:12:03;;;;;;;1999.90;999.90;;;;;;;;;;5023556;28;20235;-71
2022/09/26 05:14:34;;;;;;;1999.90;999.90;;;;;;;;;;5023301;28;20240;-73
2022/09/26 05:17:03;;;;;;;1999.90;999.90;;;;;;;;;;5049041;28;20322;-71
2022/09/26 05:19:32;;;;;;;1999.90;999.90;;;;;;;;;;5030401;28;20729;-72
2022/09/26 05:22:38;;;;;;;1999.90;999.90;;;;;;;;;;5037592;28;20405;-73
2022/09/26 05:27:54;;;;;;;1999.90;999.90;;;;;;;;;;5043266;28;20393;-71
2022/09/26 05:30:23;;;;;;;1999.90;999.90;;;;;;;;;;5021424;28;20451;-70
2022/09/26 05:32:50;;;;;;;1999.90;999.90;;;;;;;;;;5043829;28;20892;-71
2022/09/26 05:35:18;;;;;;;1999.90;999.90;;;;;;;;;;5047611;28;20491;-70
2022/09/26 05:37:46;;;;;;;1999.90;999.90;;;;;;;;;;5027263;28;20833;-71
2022/09/26 05:43:01;;;;;;;1999.90;999.90;;;;;;;;;;5024284;28;20927;-70
2022/09/26 05:45:30;;;;;;;1999.90;999.90;;;;;;;;;;5048631;28;20244;-70
2022/09/26 05:47:59;;;;;;;1999.90;999.90;;;;;;;;;;5042850;28;20259;-70
2022/09/26 05:50:27;;;;;;;1999.90;999.90;;;;;;;;;;5044091;28;20485;-70
2022/09/26 05:52:56;;;;;;;1999.90;999.90;;;;;;;;;;5022873;28;20407;-70
2022/09/26 05:55:26;;;;;;;1999.90;999.90;;;;;;;;;;5045552;28;20289;-70
2022/09/26 05:58:17;;;;;;;1999.90;999.90;;;;;;;;;;5046662;28;20223;-70
2022/09/26 06:01:04;;;;;;;1999.90;999.90;;;;;;;;;;5042467;28;20418;-71
2022/09/26 06:03:34;;;;;;;1999.90;999.90;;;;;;;;;;5028457;28;20885;-71
2022/09/26 06:06:09;;;;;;;1999.90;999.90;;;;;;;;;;5027971;28;20844;-70
2022/09/26 06:08:37;;;;;;;1999.90;999.90;;;;;;;;;;5039508;28;20458;-70
2022/09/26 06:11:29;;;;;;;1999.90;999.90;;;;;;;;;;5037779;28;20388;-70
2022/09/26 06:13:59;;;;;;;1999.90;999.90;;;;;;;;;;5034950;28;20225;-72
2022/09/26 06:16:28;;;;;;;1999.90;999.90;;;;;;;;;;5051568;28;20240;-73
2022/09/26 06:18:55;;;;;;;1999.90;999.90;;;;;;;;;;5038663;28;20231;-72
2022/09/26 06:21:23;;;;;;;1999.90;999.90;;;;;;;;;;5024586;28;20484;-72
2022/09/26 06:23:59;;;;;;;1999.90;999.90;;;;;;;;;;5026652;28;20239;-72
2022/09/26 06:26:30;;;;;;;1999.90;999.90;;;;;;;;;;5025884;28;20228;-72
2022/09/26 06:28:58;;;;;;;1999.90;999.90;;;;;;;;;;5030013;28;20323;-72
2022/09/26 06:31:29;;;;;;;1999.90;999.90;;;;;;;;;;5021417;28;20232;-72
2022/09/26 06:34:10;;;;;;;1999.90;999.90;;;;;;;;;;5045324;28;20241;-72
2022/09/26 06:36:45;;;;;;;1999.90;999.90;;;;;;;;;;5026514;28;20228;-72
2022/09/26 06:39:13;;;;;;;1999.90;999.90;;;;;;;;;;5042537;28;20236;-72
2022/09/26 06:41:44;;;;;;;1999.90;999.90;;;;;;;;;;5028549;28;20259;-72
2022/09/26 06:44:32;;;;;;;1999.90;999.90;;;;;;;;;;5040611;28;20229;-71
2022/09/26 06:47:18;;;;;;;1999.90;999.90;;;;;;;;;;5046058;28;20228;-72
2022/09/26 06:49:47;;;;;;;1999.90;999.90;;;;;;;;;;5046824;28;20783;-72
2022/09/26 06:52:28;;;;;;;1999.90;999.90;;;;;;;;;;5042606;28;20236;-72
2022/09/26 06:54:56;;;;;;;1999.90;999.90;;;;;;;;;;5047083;28;20237;-72
2022/09/26 06:57:25;;;;;;;1999.90;999.90;;;;;;;;;;5044729;28;20264;-72
2022/09/26 06:59:53;;;;;;;1999.90;999.90;;;;;;;;;;5029909;28;20229;-72
2022/09/26 07:02:50;;;;;;;1999.90;999.90;;;;;;;;;;5044807;28;20233;-73
2022/09/26 07:05:53;;;;;;;1999.90;999.90;;;;;;;;;;5029387;28;20267;-73
2022/09/26 07:08:21;;;;;;;1999.90;999.90;;;;;;;;;;5060107;28;21378;-72
2022/09/26 07:11:09;;;;;;;1999.90;999.90;;;;;;;;;;5022530;28;20422;-73
2022/09/26 07:14:00;;;;;;;1999.90;999.90;;;;;;;;;;5042519;28;20756;-72
2022/09/26 07:16:29;;;;;;;1999.90;999.90;;;;;;;;;;5043481;28;20221;-72
2022/09/26 07:19:18;;;;;;;1999.90;999.90;;;;;;;;;;5038856;28;21099;-73
2022/09/26 07:22:01;;;;;;;1999.90;999.90;;;;;;;;;;5047578;28;20235;-72
2022/09/26 07:24:34;;;;;;;1999.90;999.90;;;;;;;;;;5048020;28;20232;-74
2022/09/26 07:27:02;;;;;;;1999.90;999.90;;;;;;;;;;5027743;28;20235;-72
2022/09/26 07:29:31;;;;;;;1999.90;999.90;;;;;;;;;;5029536;28;20232;-72
2022/09/26 07:32:00;;;;;;;1999.90;999.90;;;;;;;;;;5024801;28;20225;-72
2022/09/26 07:34:41;;;;;;;1999.90;999.90;;;;;;;;;;5024477;28;21233;-72
2022/09/26 07:37:10;;;;;;;1999.90;999.90;;;;;;;;;;5019121;28;20407;-72
2022/09/26 07:39:38;;;;;;;1999.90;999.90;;;;;;;;;;5044662;28;20822;-72
2022/09/26 07:42:07;;;;;;;1999.90;999.90;;;;;;;;;;5045566;28;20392;-72
2022/09/26 07:44:36;;;;;;;1999.90;999.90;;;;;;;;;;5044308;28;20244;-72
2022/09/26 07:50:30;;;;;;;1999.90;999.90;;;;;;;;;;5038210;28;20232;-72
2022/09/26 07:53:03;;;;;;;1999.90;999.90;;;;;;;;;;5019224;28;20232;-72
2022/09/26 07:55:31;;;;;;;1999.90;999.90;;;;;;;;;;5034018;28;21850;-72
2022/09/26 07:57:59;;;;;;;1999.90;999.90;;;;;;;;;;5033658;28;20287;-72
2022/09/26 08:00:45;;;;;;;1999.90;999.90;;;;;;;;;;5023990;28;20246;-72
2022/09/26 08:03:27;;;;;;;1999.90;999.90;;;;;;;;;;5012890;28;20330;-72
2022/09/26 08:05:58;;;;;;;1999.90;999.90;;;;;;;;;;5013540;28;20229;-72
2022/09/26 08:08:26;;;;;;;1999.90;999.90;;;;;;;;;;5051245;28;20232;-72
2022/09/26 08:11:00;;;;;;;1999.90;999.90;;;;;;;;;;5052355;28;20287;-72
2022/09/26 08:13:47;;;;;;;1999.90;999.90;;;;;;;;;;5038016;28;20319;-72
2022/09/26 08:16:22;;;;;;;1999.90;999.90;;;;;;;;;;5036419;28;20240;-72
2022/09/26 08:18:53;;;;;;;1999.90;999.90;;;;;;;;;;5039378;28;20228;-72
2022/09/26 08:21:23;;;;;;;1999.90;999.90;;;;;;;;;;5025825;28;20294;-73
2022/09/26 08:23:55;;;;;;;1999.90;999.90;;;;;;;;;;5042477;28;20220;-72
2022/09/26 08:26:41;;;;;;;1999.90;999.90;;;;;;;;;;5044354;28;20243;-72
2022/09/26 08:29:21;;;;;;;1999.90;999.90;;;;;;;;;;5054330;28;20236;-72
2022/09/26 08:31:53;;;;;;;1999.90;999.90;;;;;;;;;;5026105;28;20240;-71
2022/09/26 08:34:21;;;;;;;1999.90;999.90;;;;;;;;;;5026210;28;20771;-71
2022/09/26 08:37:28;;;;;;;1999.90;999.90;;;;;;;;;;5039300;28;20243;-72
2022/09/26 08:40:14;;;;;;;1999.90;999.90;;;;;;;;;;5037877;28;20320;-72
2022/09/26 08:43:24;;;;;;;1999.90;999.90;;;;;;;;;;5028679;28;20983;-72
2022/09/26 08:46:42;;;;;;;1999.90;999.90;;;;;;;;;;5035113;28;20279;-72
2022/09/26 08:49:40;;;;;;;1999.90;999.90;;;;;;;;;;5041504;28;20220;-71
2022/09/26 08:52:17;;;;;;;1999.90;999.90;;;;;;;;;;5042723;28;20239;-72
2022/09/26 08:54:46;;;;;;;1999.90;999.90;;;;;;;;;;5042918;28;20327;-70
2022/09/26 08:57:18;;;;;;;1999.90;999.90;;;;;;;;;;5044196;28;21097;-72
2022/09/26 08:59:46;;;;;;;1999.90;999.90;;;;;;;;;;5044017;28;20263;-72
2022/09/26 09:02:20;;;;;;;1999.90;999.90;;;;;;;;;;5030668;28;20220;-72
2022/09/26 09:04:58;;;;;;;1999.90;999.90;;;;;;;;;;5027699;28;21020;-71
2022/09/26 09:07:26;;;;;;;1999.90;999.90;;;;;;;;;;5042929;28;20224;-72
2022/09/26 09:09:56;;;;;;;1999.90;999.90;;;;;;;;;;5042041;28;20232;-72
2022/09/26 09:12:50;;;;;;;1999.90;999.90;;;;;;;;;;5039724;28;20236;-71
2022/09/26 09:15:42;;;;;;;1999.90;999.90;;;;;;;;;;5042869;28;20241;-72
2022/09/26 09:18:34;;;;;;;1999.90;999.90;;;;;;;;;;5045267;28;20234;-72
2022/09/26 09:21:23;;;;;;;1999.90;999.90;;;;;;;;;;5042488;28;20399;-72
2022/09/26 09:24:26;;;;;;;1999.90;999.90;;;;;;;;;;5033359;28;20397;-75
2022/09/26 09:27:01;;;;;;;1999.90;999.90;;;;;;;;;;5040508;28;20412;-74
2022/09/26 09:30:02;;;;;;;1999.90;999.90;;;;;;;;;;5026650;28;20450;-72
2022/09/26 09:33:11;;;;;;;1999.90;999.90;;;;;;;;;;5030089;28;20402;-72
2022/09/26 09:36:09;;;;;;;1999.90;999.90;;;;;;;;;;5003326;28;20398;-72
2022/09/26 09:38:44;;;;;;;1999.90;999.90;;;;;;;;;;5043767;28;20420;-72
2022/09/26 09:41:23;;;;;;;1999.90;999.90;;;;;;;;;;5042553;28;20509;-73
2022/09/26 09:43:54;;;;;;;1999.90;999.90;;;;;;;;;;5046003;28;20408;-71
2022/09/26 09:46:27;;;;;;;1999.90;999.90;;;;;;;;;;5031865;28;20403;-72
2022/09/26 09:48:57;;;;;;;1999.90;999.90;;;;;;;;;;5024077;28;21704;-72
2022/09/26 09:51:42;;;;;;;1999.90;999.90;;;;;;;;;;5024165;28;20489;-73
2022/09/26 09:54:26;;;;;;;1999.90;999.90;;;;;;;;;;5046439;28;20495;-73
2022/09/26 09:57:07;;;;;;;1999.90;999.90;;;;;;;;;;5027793;28;20392;-72
2022/09/26 09:59:55;;;;;;;1999.90;999.90;;;;;;;;;;5027430;28;20417;-72
2022/09/26 10:02:31;;;;;;;1999.90;999.90;;;;;;;;;;5010301;28;20380;-71
2022/09/26 10:05:05;;;;;;;1999.90;999.90;;;;;;;;;;5046145;28;20505;-73
2022/09/26 10:07:33;;;;;;;1999.90;999.90;;;;;;;;;;5027637;28;20376;-73
2022/09/26 10:10:27;;;;;;;1999.90;999.90;;;;;;;;;;5043088;28;20399;-75
2022/09/26 10:13:22;;;;;;;1999.90;999.90;;;;;;;;;;5048535;28;20392;-73
2022/09/26 10:16:13;;;;;;;1999.90;999.90;;;;;;;;;;5052871;28;20400;-73
2022/09/26 10:18:55;;;;;;;1999.90;999.90;;;;;;;;;;5047643;28;20389;-73
2022/09/26 10:21:32;;;;;;;1999.90;999.90;;;;;;;;;;5047984;28;20412;-74
2022/09/26 10:24:02;;;;;;;1999.90;999.90;;;;;;;;;;5053349;28;20362;-74
2022/09/26 10:26:49;;;;;;;1999.90;999.90;;;;;;;;;;5033127;28;21110;-74
2022/09/26 10:29:35;;;;;;;1999.90;999.90;;;;;;;;;;5049603;28;20427;-74
2022/09/26 10:32:04;;;;;;;1999.90;999.90;;;;;;;;;;5030077;28;20424;-75
2022/09/26 10:34:33;;;;;;;1999.90;999.90;;;;;;;;;;5028085;28;20420;-73
2022/09/26 10:37:19;;;;;;;1999.90;999.90;;;;;;;;;;5032774;28;20400;-73
2022/09/26 10:42:39;;;;;;;1999.90;999.90;;;;;;;;;;5050991;28;20443;-74
2022/09/26 10:45:14;;;;;;;1999.90;999.90;;;;;;;;;;5029520;28;20405;-73
2022/09/26 10:48:12;;;;;;;1999.90;999.90;;;;;;;;;;5049007;28;20396;-73
2022/09/26 10:51:04;;;;;;;1999.90;999.90;;;;;;;;;;5033842;28;21145;-74
2022/09/26 10:53:40;;;;;;;1999.90;999.90;;;;;;;;;;5031404;28;20430;-73
2022/09/26 10:56:11;;;;;;;1999.90;999.90;;;;;;;;;;5018999;28;20421;-72
2022/09/26 10:58:42;;;;;;;1999.90;999.90;;;;;;;;;;5021786;28;20511;-73
2022/09/26 11:01:17;;;;;;;1999.90;999.90;;;;;;;;;;5039975;28;20420;-73
2022/09/26 11:03:47;;;;;;;1999.90;999.90;;;;;;;;;;5037915;28;20414;-73
2022/09/26 11:06:29;;;;;;;1999.90;999.90;;;;;;;;;;5061494;28;20427;-73
2022/09/26 11:09:03;;;;;;;1999.90;999.90;;;;;;;;;;5030571;28;20374;-73
2022/09/26 11:11:51;;;;;;;1999.90;999.90;;;;;;;;;;5051259;28;21822;-73
2022/09/26 11:14:27;;;;;;;1999.90;999.90;;;;;;;;;;5031829;28;20383;-73
2022/09/26 11:17:10;;;;;;;1999.90;999.90;;;;;;;;;;5046970;28;20368;-73
2022/09/26 11:19:44;;;;;;;1999.90;999.90;;;;;;;;;;5033859;28;21906;-73
2022/09/26 11:22:14;;;;;;;1999.90;999.90;;;;;;;;;;5049229;28;20418;-73
2022/09/26 11:24:46;;;;;;;1999.90;999.90;;;;;;;;;;5044513;28;21220;-73
2022/09/26 11:27:18;;;;;;;1999.90;999.90;;;;;;;;;;5066241;28;20400;-74
2022/09/26 11:29:52;;;;;;;1999.90;999.90;;;;;;;;;;5072448;28;20395;-76
2022/09/26 11:32:26;;;;;;;1999.90;999.90;;;;;;;;;;5034714;28;20365;-74
2022/09/26 11:35:00;;;;;;;1999.90;999.90;;;;;;;;;;5053358;28;20459;-74
2022/09/26 11:37:36;;;;;;;1999.90;999.90;;;;;;;;;;5038976;28;20349;-75
2022/09/26 11:40:10;;;;;;;1999.90;999.90;;;;;;;;;;5056467;28;20378;-75
2022/09/26 11:42:53;;;;;;;1999.90;999.90;;;;;;;;;;5048304;28;20458;-75
2022/09/26 11:45:31;;;;;;;1999.90;999.90;;;;;;;;;;5056713;28;20454;-74
2022/09/26 11:48:43;;;;;;;1999.90;999.90;;;;;;;;;;5041723;28;20392;-74
2022/09/26 11:51:41;;;;;;;1999.90;999.90;;;;;;;;;;5060532;28;20399;-74
2022/09/26 11:54:16;;;;;;;1999.90;999.90;;;;;;;;;;5046852;28;20401;-74
2022/09/26 11:56:54;;;;;;;1999.90;999.90;;;;;;;;;;5063530;28;20407;-74
2022/09/26 11:59:44;;;;;;;1999.90;999.90;;;;;;;;;;5048092;28;20470;-75
2022/09/26 12:02:39;;;;;;;1999.90;999.90;;;;;;;;;;5057439;28;20377;-74
2022/09/26 12:05:23;;;;;;;1999.90;999.90;;;;;;;;;;5040065;28;20388;-75
2022/09/26 12:08:00;;;;;;;1999.90;999.90;;;;;;;;;;5057535;28;20400;-77
2022/09/26 12:10:34;;;;;;;1999.90;999.90;;;;;;;;;;5054159;28;20396;-75
2022/09/26 12:13:08;;;;;;;1999.90;999.90;;;;;;;;;;5035357;28;20392;-74
2022/09/26 12:15:38;;;;;;;1999.90;999.90;;;;;;;;;;5056007;28;20389;-74
2022/09/26 12:18:12;;;;;;;1999.90;999.90;;;;;;;;;;5050977;28;20412;-75
2022/09/26 12:20:45;;;;;;;1999.90;999.90;;;;;;;;;;5037691;28;20367;-74
2022/09/26 12:23:20;;;;;;;1999.90;999.90;;;;;;;;;;5055109;28;20377;-75
2022/09/26 12:25:54;;;;;;;1999.90;999.90;;;;;;;;;;5054131;28;20396;-74
2022/09/26 12:28:29;;;;;;;1999.90;999.90;;;;;;;;;;5056972;28;20406;-74
2022/09/26 12:31:04;;;;;;;1999.90;999.90;;;;;;;;;;5052611;28;20395;-74
2022/09/26 12:33:43;;;;;;;1999.90;999.90;;;;;;;;;;5055341;28;20404;-75
2022/09/26 12:36:17;;;;;;;1999.90;999.90;;;;;;;;;;5053053;28;20401;-74
2022/09/26 12:38:52;;;;;;;1999.90;999.90;;;;;;;;;;5051767;28;20408;-74
2022/09/26 12:41:39;;;;;;;1999.90;999.90;;;;;;;;;;5044941;28;20457;-75
2022/09/26 12:44:26;;;;;;;1999.90;999.90;;;;;;;;;;5051082;28;20400;-74
2022/09/26 12:47:08;;;;;;;1999.90;999.90;;;;;;;;;;5063363;28;20407;-75
2022/09/26 12:49:49;;;;;;;1999.90;999.90;;;;;;;;;;5036517;28;20420;-75
2022/09/26 12:52:23;;;;;;;1999.90;999.90;;;;;;;;;;5047558;28;20392;-75
2022/09/26 12:55:04;;;;;;;1999.90;999.90;;;;;;;;;;5034387;28;20460;-74
2022/09/26 12:57:38;;;;;;;1999.90;999.90;;;;;;;;;;5047133;28;20392;-74
2022/09/26 13:00:15;;;;;;;1999.90;999.90;;;;;;;;;;5054069;28;20412;-74
2022/09/26 13:03:13;;;;;;;1999.90;999.90;;;;;;;;;;5048992;28;20396;-74
2022/09/26 13:05:52;;;;;;;1999.90;999.90;;;;;;;;;;5053302;28;20377;-74
2022/09/26 13:08:24;;;;;;;1999.90;999.90;;;;;;;;;;5051187;28;20412;-74
2022/09/26 13:10:58;;;;;;;1999.90;999.90;;;;;;;;;;5051948;28;20444;-75
2022/09/26 13:13:45;;;;;;;1999.90;999.90;;;;;;;;;;5048269;28;21081;-74
2022/09/26 13:16:22;;;;;;;1999.90;999.90;;;;;;;;;;5052479;28;20460;-73
2022/09/26 13:18:52;;;;;;;1999.90;999.90;;;;;;;;;;5056000;28;20428;-73
2022/09/26 13:21:23;;;;;;;1999.90;999.90;;;;;;;;;;5053236;28;20500;-74
2022/09/26 13:23:56;;;;;;;1999.90;999.90;;;;;;;;;;5039345;28;20480;-74
2022/09/26 13:26:27;;;;;;;1999.90;999.90;;;;;;;;;;5039593;28;20441;-74
2022/09/26 13:29:02;;;;;;;1999.90;999.90;;;;;;;;;;5038428;28;21450;-75
2022/09/26 13:31:54;;;;;;;1999.90;999.90;;;;;;;;;;5053317;28;20505;-74
2022/09/26 13:34:26;;;;;;;1999.90;999.90;;;;;;;;;;5039361;28;20462;-75
2022/09/26 13:36:57;;;;;;;1999.90;999.90;;;;;;;;;;5053296;28;20426;-75
2022/09/26 13:39:29;;;;;;;1999.90;999.90;;;;;;;;;;5053425;28;20401;-73
2022/09/26 13:42:00;;;;;;;1999.90;999.90;;;;;;;;;;5051425;28;20409;-74
2022/09/26 13:44:48;;;;;;;1999.90;999.90;;;;;;;;;;5050983;28;20531;-74
2022/09/26 13:47:21;;;;;;;1999.90;999.90;;;;;;;;;;5052294;28;20436;-74
2022/09/26 13:49:58;;;;;;;1999.90;999.90;;;;;;;;;;5049418;28;20445;-75
2022/09/26 13:52:41;;;;;;;1999.90;999.90;;;;;;;;;;5051506;28;22165;-75
2022/09/26 13:55:13;;;;;;;1999.90;999.90;;;;;;;;;;5050666;28;20404;-76
2022/09/26 13:57:46;;;;;;;1999.90;999.90;;;;;;;;;;5048287;28;20408;-74
2022/09/26 14:00:39;;;;;;;1999.90;999.90;;;;;;;;;;5054726;28;20394;-75
2022/09/26 14:03:27;;;;;;;1999.90;999.90;;;;;;;;;;5054622;28;20433;-76
2022/09/26 14:06:06;;;;;;;1999.90;999.90;;;;;;;;;;5052465;28;20818;-75
2022/09/26 14:11:26;;;;;;;1999.90;999.90;;;;;;;;;;5055990;28;20424;-74
2022/09/26 14:14:14;;;;;;;1999.90;999.90;;;;;;;;;;5050448;28;20378;-75
2022/09/26 14:16:43;;;;;;;1999.90;999.90;;;;;;;;;;5060156;28;20447;-74
2022/09/26 14:19:12;;;;;;;1999.90;999.90;;;;;;;;;;5060148;28;20439;-75
2022/09/26 14:21:41;;;;;;;1999.90;999.90;;;;;;;;;;5058899;28;20472;-74
2022/09/26 14:24:26;;;;;;;1999.90;999.90;;;;;;;;;;5058824;28;21315;-75
2022/09/26 14:26:58;;;;;;;1999.90;999.90;;;;;;;;;;5037458;28;20365;-74
2022/09/26 14:29:31;;;;;;;1999.90;999.90;;;;;;;;;;5056817;28;20414;-74
2022/09/26 14:32:03;;;;;;;1999.90;999.90;;;;;;;;;;5065885;28;20443;-75
2022/09/26 14:34:35;;;;;;;1999.90;999.90;;;;;;;;;;5068384;28;20384;-74
2022/09/26 14:37:03;;;;;;;1999.90;999.90;;;;;;;;;;5046167;28;20381;-74
2022/09/26 14:39:38;;;;;;;1999.90;999.90;;;;;;;;;;5081454;28;20360;-74
2022/09/26 14:42:10;;;;;;;1999.90;999.90;;;;;;;;;;5078244;28;21634;-73